Avon, Minnesota
Current Conditions -  °F | °C
As of 12:53 AM on Friday 31 Oct 2014 (Local Time) from KSTC Reporting Station
Clear Clear  
Wind Chill: 21°   Ceiling: Unl
Heat Index: 31°   Visibility: 10mi
Dew Point: 14°   Wind: 14mph
Humidity: 50%   Direction: 350°N
Pressure: 30.43"   Gusts: 20mph
Location:  45.61°N, 94.45°W
Report Text: KSTC 310553Z AUTO 35012G17KT 10SM CLR M01/M10 A3043 RMK AO2 SLP323 T10061100 10056 21011 400831011 51023
Loading
Personal Weather Stations






























Interactive Weather Map
Tropical Storm Tracking
New forecast layout! Learn more

10-Day Weather Forecast

Advertisements
Track Severe Weather on mobile